sensor_id;sensor_type;location;lat;lon;timestamp;pressure;altitude;pressure_sealevel;temperature;humidity
54876;BME280;40764;48.472;8.166;2023-05-12T00:05:52;97906.97;;;11.39;100.00
54876;BME280;40764;48.472;8.166;2023-05-12T00:11:52;97906.06;;;11.30;100.00
54876;BME280;40764;48.472;8.166;2023-05-12T00:17:53;97905.41;;;11.47;100.00
54876;BME280;40764;48.472;8.166;2023-05-12T00:23:53;97903.47;;;11.47;100.00
54876;BME280;40764;48.472;8.166;2023-05-12T00:29:53;97900.38;;;11.40;100.00
54876;BME280;40764;48.472;8.166;2023-05-12T00:35:54;97892.91;;;11.55;100.00
54876;BME280;40764;48.472;8.166;2023-05-12T00:41:56;97892.81;;;11.60;100.00
54876;BME280;40764;48.472;8.166;2023-05-12T00:47:56;97894.31;;;11.30;100.00
54876;BME280;40764;48.472;8.166;2023-05-12T00:53:57;97888.31;;;11.41;100.00
54876;BME280;40764;48.472;8.166;2023-05-12T00:59:58;97878.41;;;11.18;100.00
54876;BME280;40764;48.472;8.166;2023-05-12T01:06:19;97882.81;;;11.41;100.00
54876;BME280;40764;48.472;8.166;2023-05-12T01:12:22;97882.72;;;11.46;100.00
54876;BME280;40764;48.472;8.166;2023-05-12T01:18:23;97881.63;;;11.34;100.00
54876;BME280;40764;48.472;8.166;2023-05-12T01:24:26;97881.59;;;11.47;100.00
54876;BME280;40764;48.472;8.166;2023-05-12T01:30:28;97881.59;;;11.47;100.00
54876;BME280;40764;48.472;8.166;2023-05-12T01:36:28;97883.94;;;11.40;100.00
54876;BME280;40764;48.472;8.166;2023-05-12T01:42:29;97879.81;;;11.29;100.00
54876;BME280;40764;48.472;8.166;2023-05-12T01:48:29;97878.09;;;11.20;100.00
54876;BME280;40764;48.472;8.166;2023-05-12T01:54:29;97880.94;;;11.28;100.00
54876;BME280;40764;48.472;8.166;2023-05-12T02:00:30;97872.94;;;11.32;100.00
54876;BME280;40764;48.472;8.166;2023-05-12T02:06:30;97870.81;;;11.29;100.00
54876;BME280;40764;48.472;8.166;2023-05-12T02:12:31;97869.38;;;11.31;100.00
54876;BME280;40764;48.472;8.166;2023-05-12T02:18:33;97880.63;;;11.30;100.00
54876;BME280;40764;48.472;8.166;2023-05-12T02:24:33;97876.84;;;11.39;100.00
54876;BME280;40764;48.472;8.166;2023-05-12T02:30:34;97870.28;;;11.27;100.00
54876;BME280;40764;48.472;8.166;2023-05-12T02:36:34;97873.25;;;11.16;100.00
54876;BME280;40764;48.472;8.166;2023-05-12T02:42:35;97867.03;;;11.25;100.00
54876;BME280;40764;48.472;8.166;2023-05-12T02:48:37;97870.00;;;11.14;100.00
54876;BME280;40764;48.472;8.166;2023-05-12T02:54:37;97867.16;;;11.20;100.00
54876;BME280;40764;48.472;8.166;2023-05-12T03:00:38;97865.22;;;11.34;100.00
54876;BME280;40764;48.472;8.166;2023-05-12T03:06:38;97865.03;;;11.30;100.00
54876;BME280;40764;48.472;8.166;2023-05-12T03:12:38;97867.84;;;11.39;100.00
54876;BME280;40764;48.472;8.166;2023-05-12T03:18:39;97868.97;;;11.24;100.00
54876;BME280;40764;48.472;8.166;2023-05-12T03:24:39;97869.41;;;11.17;100.00
54876;BME280;40764;48.472;8.166;2023-05-12T03:30:39;97867.91;;;11.11;100.00
54876;BME280;40764;48.472;8.166;2023-05-12T03:36:40;97867.28;;;11.14;100.00
54876;BME280;40764;48.472;8.166;2023-05-12T03:42:41;97867.09;;;11.11;100.00
54876;BME280;40764;48.472;8.166;2023-05-12T03:48:41;97868.19;;;11.10;100.00
54876;BME280;40764;48.472;8.166;2023-05-12T03:54:41;97859.88;;;11.29;100.00
54876;BME280;40764;48.472;8.166;2023-05-12T04:00:42;97864.94;;;11.22;100.00
54876;BME280;40764;48.472;8.166;2023-05-12T04:06:42;97852.16;;;11.31;100.00
54876;BME280;40764;48.472;8.166;2023-05-12T04:12:42;97852.25;;;11.26;100.00
54876;BME280;40764;48.472;8.166;2023-05-12T04:18:43;97860.38;;;11.31;100.00
54876;BME280;40764;48.472;8.166;2023-05-12T04:24:43;97856.91;;;11.61;100.00
54876;BME280;40764;48.472;8.166;2023-05-12T04:30:43;97869.81;;;11.47;100.00
54876;BME280;40764;48.472;8.166;2023-05-12T04:36:44;97863.28;;;11.34;100.00
54876;BME280;40764;48.472;8.166;2023-05-12T04:42:44;97864.50;;;11.64;100.00
54876;BME280;40764;48.472;8.166;2023-05-12T04:48:45;97869.06;;;11.69;100.00
54876;BME280;40764;48.472;8.166;2023-05-12T04:54:45;97877.44;;;11.72;100.00
54876;BME280;40764;48.472;8.166;2023-05-12T05:00:45;97884.19;;;11.66;100.00
54876;BME280;40764;48.472;8.166;2023-05-12T05:06:46;97886.44;;;11.51;100.00
54876;BME280;40764;48.472;8.166;2023-05-12T05:12:46;97892.91;;;11.55;100.00
54876;BME280;40764;48.472;8.166;2023-05-12T05:18:46;97902.53;;;11.66;100.00
54876;BME280;40764;48.472;8.166;2023-05-12T05:24:47;97905.09;;;11.85;100.00
54876;BME280;40764;48.472;8.166;2023-05-12T05:30:47;97904.03;;;11.86;100.00
54876;BME280;40764;48.472;8.166;2023-05-12T05:36:48;97907.00;;;11.98;100.00
54876;BME280;40764;48.472;8.166;2023-05-12T05:42:48;97909.47;;;12.08;100.00
54876;BME280;40764;48.472;8.166;2023-05-12T05:48:49;97913.97;;;12.04;100.00
54876;BME280;40764;48.472;8.166;2023-05-12T05:54:49;97909.47;;;12.08;100.00
54876;BME280;40764;48.472;8.166;2023-05-12T06:00:49;97910.69;;;12.16;100.00
54876;BME280;40764;48.472;8.166;2023-05-12T06:06:50;97912.03;;;12.04;100.00
54876;BME280;40764;48.472;8.166;2023-05-12T06:12:50;97915.25;;;12.06;100.00
54876;BME280;40764;48.472;8.166;2023-05-12T06:18:50;97924.25;;;12.21;100.00
54876;BME280;40764;48.472;8.166;2023-05-12T06:24:51;97920.44;;;12.08;100.00
54876;BME280;40764;48.472;8.166;2023-05-12T06:30:51;97923.56;;;12.15;100.00
54876;BME280;40764;48.472;8.166;2023-05-12T06:36:51;97926.41;;;12.32;100.00
54876;BME280;40764;48.472;8.166;2023-05-12T06:42:52;97925.16;;;12.38;100.00
54876;BME280;40764;48.472;8.166;2023-05-12T06:48:54;97933.31;;;12.30;100.00
54876;BME280;40764;48.472;8.166;2023-05-12T06:54:55;97939.34;;;12.40;100.00
54876;BME280;40764;48.472;8.166;2023-05-12T07:00:55;97932.19;;;12.53;100.00
54876;BME280;40764;48.472;8.166;2023-05-12T07:06:56;97936.88;;;12.61;100.00
54876;BME280;40764;48.472;8.166;2023-05-12T07:12:57;97936.25;;;12.64;100.00
54876;BME280;40764;48.472;8.166;2023-05-12T07:18:57;97932.16;;;12.84;100.00
54876;BME280;40764;48.472;8.166;2023-05-12T07:24:57;97933.34;;;13.00;100.00
54876;BME280;40764;48.472;8.166;2023-05-12T07:30:58;97942.13;;;13.11;100.00
54876;BME280;40764;48.472;8.166;2023-05-12T07:36:59;97932.84;;;13.38;100.00
54876;BME280;40764;48.472;8.166;2023-05-12T07:43:02;97925.78;;;13.63;98.81
54876;BME280;40764;48.472;8.166;2023-05-12T07:49:03;97932.56;;;13.74;97.71
54876;BME280;40764;48.472;8.166;2023-05-12T07:55:03;97923.69;;;13.69;98.02
54876;BME280;40764;48.472;8.166;2023-05-12T08:01:04;97916.44;;;13.90;94.45
54876;BME280;40764;48.472;8.166;2023-05-12T08:07:05;97922.88;;;14.20;95.67
54876;BME280;40764;48.472;8.166;2023-05-12T08:13:06;97924.44;;;14.38;92.83
54876;BME280;40764;48.472;8.166;2023-05-12T08:19:06;97935.94;;;14.96;90.09
54876;BME280;40764;48.472;8.166;2023-05-12T08:25:07;97929.78;;;14.99;87.10
54876;BME280;40764;48.472;8.166;2023-05-12T08:31:07;97919.72;;;15.32;84.91
54876;BME280;40764;48.472;8.166;2023-05-12T08:37:08;97923.41;;;15.45;81.98
54876;BME280;40764;48.472;8.166;2023-05-12T08:43:22;97926.34;;;15.90;79.04
54876;BME280;40764;48.472;8.166;2023-05-12T08:49:28;97926.97;;;15.96;77.33
54876;BME280;40764;48.472;8.166;2023-05-12T08:55:30;97921.50;;;16.08;75.62
54876;BME280;40764;48.472;8.166;2023-05-12T09:01:36;97936.53;;;16.31;75.66
54876;BME280;40764;48.472;8.166;2023-05-12T09:07:41;97921.50;;;16.41;75.72
54876;BME280;40764;48.472;8.166;2023-05-12T09:13:49;97923.81;;;16.18;77.43
54876;BME280;40764;48.472;8.166;2023-05-12T09:19:51;97919.50;;;15.96;74.57
54876;BME280;40764;48.472;8.166;2023-05-12T09:25:58;97922.38;;;16.21;76.75
54876;BME280;40764;48.472;8.166;2023-05-12T09:32:01;97924.13;;;15.63;78.77
54876;BME280;40764;48.472;8.166;2023-05-12T09:38:06;97922.25;;;15.75;80.09
54876;BME280;40764;48.472;8.166;2023-05-12T09:44:08;97927.22;;;15.53;82.24
54876;BME280;40764;48.472;8.166;2023-05-12T09:50:09;97923.50;;;15.28;84.16
54876;BME280;40764;48.472;8.166;2023-05-12T09:56:11;97928.19;;;15.27;84.85
54876;BME280;40764;48.472;8.166;2023-05-12T10:02:13;97926.88;;;15.33;84.56
54876;BME280;40764;48.472;8.166;2023-05-12T10:08:19;97928.03;;;15.24;84.45
54876;BME280;40764;48.472;8.166;2023-05-12T10:14:21;97922.13;;;15.13;84.49
54876;BME280;40764;48.472;8.166;2023-05-12T10:20:23;97924.34;;;15.19;85.90
54876;BME280;40764;48.472;8.166;2023-05-12T10:26:25;97926.38;;;15.31;84.15
54876;BME280;40764;48.472;8.166;2023-05-12T10:32:26;97915.47;;;15.43;83.84
54876;BME280;40764;48.472;8.166;2023-05-12T10:38:34;97916.84;;;15.58;82.15
54876;BME280;40764;48.472;8.166;2023-05-12T10:44:35;97911.34;;;15.58;80.35
54876;BME280;40764;48.472;8.166;2023-05-12T10:50:36;97910.16;;;15.68;81.40
54876;BME280;40764;48.472;8.166;2023-05-12T10:56:44;97905.63;;;16.05;79.19
54876;BME280;40764;48.472;8.166;2023-05-12T11:02:48;97916.53;;;16.67;78.18
54876;BME280;40764;48.472;8.166;2023-05-12T11:08:50;97910.41;;;16.62;77.41
54876;BME280;40764;48.472;8.166;2023-05-12T11:14:51;97921.09;;;16.51;77.60
54876;BME280;40764;48.472;8.166;2023-05-12T11:20:51;97921.22;;;16.22;79.82
54876;BME280;40764;48.472;8.166;2023-05-12T11:26:51;97922.06;;;16.34;79.50
54876;BME280;40764;48.472;8.166;2023-05-12T11:33:01;97926.91;;;16.17;80.14
54876;BME280;40764;48.472;8.166;2023-05-12T11:39:02;97916.53;;;15.80;81.20
54876;BME280;40764;48.472;8.166;2023-05-12T11:45:03;97922.53;;;16.36;79.67
54876;BME280;40764;48.472;8.166;2023-05-12T11:51:03;97923.34;;;16.16;79.90
54876;BME280;40764;48.472;8.166;2023-05-12T11:57:04;97917.25;;;16.10;81.01
54876;BME280;40764;48.472;8.166;2023-05-12T12:03:10;97916.06;;;15.99;80.97
54876;BME280;40764;48.472;8.166;2023-05-12T12:09:11;97924.72;;;15.89;82.22
54876;BME280;40764;48.472;8.166;2023-05-12T12:15:12;97928.94;;;16.28;79.81
54876;BME280;40764;48.472;8.166;2023-05-12T12:21:13;97940.75;;;16.50;78.41
54876;BME280;40764;48.472;8.166;2023-05-12T12:27:13;97934.72;;;16.68;78.40
54876;BME280;40764;48.472;8.166;2023-05-12T12:33:13;97937.25;;;16.40;81.86
54876;BME280;40764;48.472;8.166;2023-05-12T12:39:14;97938.50;;;16.10;86.40
54876;BME280;40764;48.472;8.166;2023-05-12T12:45:14;97937.22;;;15.66;91.68
54876;BME280;40764;48.472;8.166;2023-05-12T12:51:14;97933.88;;;16.02;91.18
54876;BME280;40764;48.472;8.166;2023-05-12T12:57:15;97933.19;;;16.05;89.05
54876;BME280;40764;48.472;8.166;2023-05-12T13:03:15;97928.50;;;16.71;83.89
54876;BME280;40764;48.472;8.166;2023-05-12T13:09:16;97936.38;;;16.94;83.79
54876;BME280;40764;48.472;8.166;2023-05-12T13:15:16;97928.31;;;17.01;81.05
54876;BME280;40764;48.472;8.166;2023-05-12T13:21:19;97918.97;;;17.79;77.96
54876;BME280;40764;48.472;8.166;2023-05-12T13:27:20;97907.09;;;18.18;76.11
54876;BME280;40764;48.472;8.166;2023-05-12T13:33:20;97898.84;;;18.06;77.54
54876;BME280;40764;48.472;8.166;2023-05-12T13:39:21;97900.97;;;17.85;78.12
54876;BME280;40764;48.472;8.166;2023-05-12T13:45:21;97898.19;;;17.97;78.26
54876;BME280;40764;48.472;8.166;2023-05-12T13:51:22;97889.94;;;17.85;79.17
54876;BME280;40764;48.472;8.166;2023-05-12T13:57:22;97886.56;;;17.91;80.56
54876;BME280;40764;48.472;8.166;2023-05-12T14:03:22;97884.16;;;18.18;78.09
54876;BME280;40764;48.472;8.166;2023-05-12T14:09:23;97876.72;;;17.54;78.88
54876;BME280;40764;48.472;8.166;2023-05-12T14:15:23;97880.03;;;17.07;88.49
54876;BME280;40764;48.472;8.166;2023-05-12T14:21:24;97881.91;;;16.58;85.61
54876;BME280;40764;48.472;8.166;2023-05-12T14:27:24;97891.50;;;16.85;84.66
54876;BME280;40764;48.472;8.166;2023-05-12T14:33:25;97890.28;;;16.49;88.81
54876;BME280;40764;48.472;8.166;2023-05-12T14:39:26;97896.22;;;16.39;86.66
54876;BME280;40764;48.472;8.166;2023-05-12T14:45:26;97898.63;;;16.07;92.62
54876;BME280;40764;48.472;8.166;2023-05-12T14:51:29;97900.50;;;16.16;92.88
54876;BME280;40764;48.472;8.166;2023-05-12T14:57:30;97904.69;;;16.34;88.22
54876;BME280;40764;48.472;8.166;2023-05-12T15:03:33;97905.16;;;16.03;90.65
54876;BME280;40764;48.472;8.166;2023-05-12T15:09:33;97906.44;;;16.05;92.28
54876;BME280;40764;48.472;8.166;2023-05-12T15:15:33;97920.97;;;15.73;92.15
54876;BME280;40764;48.472;8.166;2023-05-12T15:21:34;97928.44;;;15.93;91.03
54876;BME280;40764;48.472;8.166;2023-05-12T15:27:35;97921.72;;;16.36;88.88
54876;BME280;40764;48.472;8.166;2023-05-12T15:33:35;97909.25;;;16.63;85.01
54876;BME280;40764;48.472;8.166;2023-05-12T15:39:37;97906.00;;;17.18;82.57
54876;BME280;40764;48.472;8.166;2023-05-12T15:45:37;97909.31;;;18.41;77.17
54876;BME280;40764;48.472;8.166;2023-05-12T15:51:38;97908.38;;;19.59;71.01
54876;BME280;40764;48.472;8.166;2023-05-12T15:57:38;97903.53;;;20.10;69.97
54876;BME280;40764;48.472;8.166;2023-05-12T16:03:39;97910.44;;;20.78;66.18
54876;BME280;40764;48.472;8.166;2023-05-12T16:09:39;97916.44;;;21.03;66.30
54876;BME280;40764;48.472;8.166;2023-05-12T16:15:40;97913.41;;;21.61;63.10
54876;BME280;40764;48.472;8.166;2023-05-12T16:21:41;97912.94;;;20.83;56.03
54876;BME280;40764;48.472;8.166;2023-05-12T16:27:41;97908.66;;;20.08;55.54
54876;BME280;40764;48.472;8.166;2023-05-12T16:33:42;97902.91;;;21.01;54.46
54876;BME280;40764;48.472;8.166;2023-05-12T16:39:42;97899.59;;;20.50;53.45
54876;BME280;40764;48.472;8.166;2023-05-12T16:45:43;97901.34;;;19.30;58.71
54876;BME280;40764;48.472;8.166;2023-05-12T16:51:43;97902.28;;;19.69;56.36
54876;BME280;40764;48.472;8.166;2023-05-12T16:57:43;97900.69;;;20.46;51.89
54876;BME280;40764;48.472;8.166;2023-05-12T17:03:44;97899.69;;;21.22;51.21
54876;BME280;40764;48.472;8.166;2023-05-12T17:09:44;97904.13;;;21.04;49.33
54876;BME280;40764;48.472;8.166;2023-05-12T17:15:45;97912.03;;;19.98;54.97
54876;BME280;40764;48.472;8.166;2023-05-12T17:21:46;97915.81;;;18.76;60.47
54876;BME280;40764;48.472;8.166;2023-05-12T17:27:47;97924.78;;;18.02;63.48
54876;BME280;40764;48.472;8.166;2023-05-12T17:33:48;97934.91;;;18.10;63.82
54876;BME280;40764;48.472;8.166;2023-05-12T17:39:48;97931.06;;;17.62;62.29
54876;BME280;40764;48.472;8.166;2023-05-12T17:45:51;97936.72;;;17.29;64.82
54876;BME280;40764;48.472;8.166;2023-05-12T17:51:53;97942.69;;;16.94;65.91
54876;BME280;40764;48.472;8.166;2023-05-12T17:57:53;97945.44;;;16.49;66.17
54876;BME280;40764;48.472;8.166;2023-05-12T18:03:54;97952.53;;;16.17;69.87
54876;BME280;40764;48.472;8.166;2023-05-12T18:09:54;97952.84;;;16.03;72.99
54876;BME280;40764;48.472;8.166;2023-05-12T18:15:55;97962.03;;;15.87;73.85
54876;BME280;40764;48.472;8.166;2023-05-12T18:21:57;97961.44;;;15.81;73.34
54876;BME280;40764;48.472;8.166;2023-05-12T18:27:59;97971.63;;;15.51;75.03
54876;BME280;40764;48.472;8.166;2023-05-12T18:33:59;97974.50;;;15.34;74.14
54876;BME280;40764;48.472;8.166;2023-05-12T18:40:00;97968.00;;;15.38;73.12
54876;BME280;40764;48.472;8.166;2023-05-12T18:46:01;97967.19;;;15.00;77.28
54876;BME280;40764;48.472;8.166;2023-05-12T18:52:02;97980.50;;;14.89;81.50
54876;BME280;40764;48.472;8.166;2023-05-12T18:58:02;97985.41;;;14.66;82.95
54876;BME280;40764;48.472;8.166;2023-05-12T19:04:03;97981.97;;;14.86;80.35
54876;BME280;40764;48.472;8.166;2023-05-12T19:10:04;97993.84;;;14.61;82.95
54876;BME280;40764;48.472;8.166;2023-05-12T19:16:05;97986.88;;;14.38;84.29
54876;BME280;40764;48.472;8.166;2023-05-12T19:22:05;97997.88;;;14.12;85.44
54876;BME280;40764;48.472;8.166;2023-05-12T19:28:06;98011.59;;;13.77;89.81
54876;BME280;40764;48.472;8.166;2023-05-12T19:34:09;98009.97;;;13.76;90.95
54876;BME280;40764;48.472;8.166;2023-05-12T19:40:09;98018.22;;;13.85;91.27
54876;BME280;40764;48.472;8.166;2023-05-12T19:46:10;98032.72;;;13.59;93.17
54876;BME280;40764;48.472;8.166;2023-05-12T19:52:10;98037.31;;;13.99;91.33
54876;BME280;40764;48.472;8.166;2023-05-12T19:58:11;98044.44;;;13.91;91.80
54876;BME280;40764;48.472;8.166;2023-05-12T20:04:11;98051.81;;;13.73;93.22
54876;BME280;40764;48.472;8.166;2023-05-12T20:10:12;98051.72;;;13.95;90.78
54876;BME280;40764;48.472;8.166;2023-05-12T20:16:13;98054.09;;;13.80;92.75
54876;BME280;40764;48.472;8.166;2023-05-12T20:22:13;98050.63;;;13.57;94.06
54876;BME280;40764;48.472;8.166;2023-05-12T20:28:13;98057.06;;;13.44;96.22
54876;BME280;40764;48.472;8.166;2023-05-12T20:34:14;98064.31;;;13.40;96.52
54876;BME280;40764;48.472;8.166;2023-05-12T20:40:14;98066.06;;;13.36;97.39
54876;BME280;40764;48.472;8.166;2023-05-12T20:46:15;98072.69;;;13.12;100.00
54876;BME280;40764;48.472;8.166;2023-05-12T20:52:15;98076.19;;;13.26;98.48
54876;BME280;40764;48.472;8.166;2023-05-12T20:58:15;98066.81;;;13.27;98.02
54876;BME280;40764;48.472;8.166;2023-05-12T21:04:16;98057.03;;;12.82;100.00
54876;BME280;40764;48.472;8.166;2023-05-12T21:10:17;98063.47;;;12.55;100.00
54876;BME280;40764;48.472;8.166;2023-05-12T21:16:17;98076.38;;;12.54;100.00
54876;BME280;40764;48.472;8.166;2023-05-12T21:22:17;98089.81;;;12.64;100.00
54876;BME280;40764;48.472;8.166;2023-05-12T21:28:18;98083.47;;;12.78;100.00
54876;BME280;40764;48.472;8.166;2023-05-12T21:34:19;98079.16;;;12.85;100.00
54876;BME280;40764;48.472;8.166;2023-05-12T21:40:20;98091.69;;;12.55;100.00
54876;BME280;40764;48.472;8.166;2023-05-12T21:46:20;98089.38;;;12.71;100.00
54876;BME280;40764;48.472;8.166;2023-05-12T21:52:20;98099.41;;;12.53;100.00
54876;BME280;40764;48.472;8.166;2023-05-12T21:58:21;98107.84;;;12.43;100.00
54876;BME280;40764;48.472;8.166;2023-05-12T22:04:22;98096.28;;;12.10;100.00
54876;BME280;40764;48.472;8.166;2023-05-12T22:10:23;98106.53;;;12.04;100.00
54876;BME280;40764;48.472;8.166;2023-05-12T22:16:23;98107.97;;;12.16;100.00
54876;BME280;40764;48.472;8.166;2023-05-12T22:22:24;98111.75;;;11.92;100.00
54876;BME280;40764;48.472;8.166;2023-05-12T22:28:24;98110.59;;;12.07;100.00
54876;BME280;40764;48.472;8.166;2023-05-12T22:34:24;98113.84;;;11.68;100.00
54876;BME280;40764;48.472;8.166;2023-05-12T22:40:25;98121.88;;;11.78;100.00
54876;BME280;40764;48.472;8.166;2023-05-12T22:46:26;98111.00;;;12.00;100.00
54876;BME280;40764;48.472;8.166;2023-05-12T22:52:27;98115.50;;;12.32;100.00
54876;BME280;40764;48.472;8.166;2023-05-12T22:58:27;98124.19;;;12.12;100.00
54876;BME280;40764;48.472;8.166;2023-05-12T23:04:27;98121.31;;;12.31;100.00
54876;BME280;40764;48.472;8.166;2023-05-12T23:10:28;98125.53;;;12.37;100.00
54876;BME280;40764;48.472;8.166;2023-05-12T23:16:28;98113.63;;;12.05;100.00
54876;BME280;40764;48.472;8.166;2023-05-12T23:22:28;98101.38;;;12.03;100.00
54876;BME280;40764;48.472;8.166;2023-05-12T23:28:29;98113.00;;;12.22;100.00
54876;BME280;40764;48.472;8.166;2023-05-12T23:34:29;98114.25;;;12.16;100.00
54876;BME280;40764;48.472;8.166;2023-05-12T23:40:29;98112.19;;;12.22;100.00
54876;BME280;40764;48.472;8.166;2023-05-12T23:46:32;98111.09;;;12.23;100.00
54876;BME280;40764;48.472;8.166;2023-05-12T23:52:32;98111.00;;;12.50;100.00
54876;BME280;40764;48.472;8.166;2023-05-12T23:58:33;98112.00;;;12.54;100.00
